sensor_id;sensor_type;location;lat;lon;timestamp;P1;durP1;ratioP1;P2;durP2;ratioP2
21168;SDS011;10742;51.816;8.662;2024-02-26T00:02:38;2.47;;;1.10;;
21168;SDS011;10742;51.816;8.662;2024-02-26T00:06:01;1.60;;;1.13;;
21168;SDS011;10742;51.816;8.662;2024-02-26T00:09:23;5.00;;;1.57;;
21168;SDS011;10742;51.816;8.662;2024-02-26T00:12:45;3.13;;;1.00;;
21168;SDS011;10742;51.816;8.662;2024-02-26T00:16:06;2.03;;;1.00;;
21168;SDS011;10742;51.816;8.662;2024-02-26T00:19:28;4.30;;;0.87;;
21168;SDS011;10742;51.816;8.662;2024-02-26T00:22:49;1.87;;;1.03;;
21168;SDS011;10742;51.816;8.662;2024-02-26T00:26:10;2.77;;;0.80;;
21168;SDS011;10742;51.816;8.662;2024-02-26T00:29:32;1.93;;;0.80;;
21168;SDS011;10742;51.816;8.662;2024-02-26T00:32:53;1.40;;;0.90;;
21168;SDS011;10742;51.816;8.662;2024-02-26T00:36:14;1.67;;;1.17;;
21168;SDS011;10742;51.816;8.662;2024-02-26T00:39:36;0.70;;;0.70;;
21168;SDS011;10742;51.816;8.662;2024-02-26T00:42:57;1.00;;;0.90;;
21168;SDS011;10742;51.816;8.662;2024-02-26T00:46:19;1.23;;;0.83;;
21168;SDS011;10742;51.816;8.662;2024-02-26T00:49:40;1.53;;;0.90;;
21168;SDS011;10742;51.816;8.662;2024-02-26T00:53:01;3.70;;;1.17;;
21168;SDS011;10742;51.816;8.662;2024-02-26T00:56:23;2.30;;;1.40;;
21168;SDS011;10742;51.816;8.662;2024-02-26T00:59:44;3.03;;;1.33;;
21168;SDS011;10742;51.816;8.662;2024-02-26T01:03:06;3.80;;;1.90;;
21168;SDS011;10742;51.816;8.662;2024-02-26T01:06:27;2.92;;;2.13;;
21168;SDS011;10742;51.816;8.662;2024-02-26T01:09:48;4.30;;;2.30;;
21168;SDS011;10742;51.816;8.662;2024-02-26T01:13:10;8.50;;;2.30;;
21168;SDS011;10742;51.816;8.662;2024-02-26T01:16:31;5.47;;;2.20;;
21168;SDS011;10742;51.816;8.662;2024-02-26T01:19:52;6.70;;;2.53;;
21168;SDS011;10742;51.816;8.662;2024-02-26T01:23:15;4.70;;;2.70;;
21168;SDS011;10742;51.816;8.662;2024-02-26T01:26:36;6.07;;;2.60;;
21168;SDS011;10742;51.816;8.662;2024-02-26T01:29:57;6.33;;;2.70;;
21168;SDS011;10742;51.816;8.662;2024-02-26T01:33:18;3.57;;;2.37;;
21168;SDS011;10742;51.816;8.662;2024-02-26T01:36:39;3.60;;;1.97;;
21168;SDS011;10742;51.816;8.662;2024-02-26T01:40:01;2.77;;;1.93;;
21168;SDS011;10742;51.816;8.662;2024-02-26T01:43:26;3.40;;;1.90;;
21168;SDS011;10742;51.816;8.662;2024-02-26T01:46:47;2.13;;;1.70;;
21168;SDS011;10742;51.816;8.662;2024-02-26T01:50:09;2.63;;;1.63;;
21168;SDS011;10742;51.816;8.662;2024-02-26T01:53:30;3.37;;;1.60;;
21168;SDS011;10742;51.816;8.662;2024-02-26T01:56:51;2.60;;;1.63;;
21168;SDS011;10742;51.816;8.662;2024-02-26T02:00:13;2.57;;;1.60;;
21168;SDS011;10742;51.816;8.662;2024-02-26T02:03:37;3.40;;;1.53;;
21168;SDS011;10742;51.816;8.662;2024-02-26T02:06:59;4.63;;;1.93;;
21168;SDS011;10742;51.816;8.662;2024-02-26T02:10:21;2.43;;;1.50;;
21168;SDS011;10742;51.816;8.662;2024-02-26T02:13:44;4.93;;;1.40;;
21168;SDS011;10742;51.816;8.662;2024-02-26T02:17:05;2.73;;;1.20;;
21168;SDS011;10742;51.816;8.662;2024-02-26T02:20:31;1.93;;;1.40;;
21168;SDS011;10742;51.816;8.662;2024-02-26T02:23:56;1.53;;;1.10;;
21168;SDS011;10742;51.816;8.662;2024-02-26T02:27:18;1.33;;;1.10;;
21168;SDS011;10742;51.816;8.662;2024-02-26T02:30:41;2.43;;;1.30;;
21168;SDS011;10742;51.816;8.662;2024-02-26T02:34:02;2.10;;;1.20;;
21168;SDS011;10742;51.816;8.662;2024-02-26T02:37:23;1.63;;;1.23;;
21168;SDS011;10742;51.816;8.662;2024-02-26T02:40:45;1.77;;;1.27;;
21168;SDS011;10742;51.816;8.662;2024-02-26T02:44:07;3.40;;;1.40;;
21168;SDS011;10742;51.816;8.662;2024-02-26T02:47:28;2.37;;;1.50;;
21168;SDS011;10742;51.816;8.662;2024-02-26T02:50:49;3.43;;;1.53;;
21168;SDS011;10742;51.816;8.662;2024-02-26T02:54:11;1.57;;;1.30;;
21168;SDS011;10742;51.816;8.662;2024-02-26T02:57:32;1.13;;;0.97;;
21168;SDS011;10742;51.816;8.662;2024-02-26T03:00:54;1.10;;;0.93;;
21168;SDS011;10742;51.816;8.662;2024-02-26T03:04:15;1.40;;;0.97;;
21168;SDS011;10742;51.816;8.662;2024-02-26T03:07:37;1.33;;;0.90;;
21168;SDS011;10742;51.816;8.662;2024-02-26T03:10:58;1.07;;;0.90;;
21168;SDS011;10742;51.816;8.662;2024-02-26T03:14:20;1.07;;;0.80;;
21168;SDS011;10742;51.816;8.662;2024-02-26T03:17:41;1.13;;;0.93;;
21168;SDS011;10742;51.816;8.662;2024-02-26T03:21:03;1.87;;;1.07;;
21168;SDS011;10742;51.816;8.662;2024-02-26T03:24:24;1.10;;;0.90;;
21168;SDS011;10742;51.816;8.662;2024-02-26T03:27:45;0.83;;;0.77;;
21168;SDS011;10742;51.816;8.662;2024-02-26T03:31:07;1.13;;;0.80;;
21168;SDS011;10742;51.816;8.662;2024-02-26T03:34:28;1.00;;;0.80;;
21168;SDS011;10742;51.816;8.662;2024-02-26T03:37:51;1.50;;;1.00;;
21168;SDS011;10742;51.816;8.662;2024-02-26T03:41:12;2.10;;;1.30;;
21168;SDS011;10742;51.816;8.662;2024-02-26T03:44:34;3.47;;;1.40;;
21168;SDS011;10742;51.816;8.662;2024-02-26T03:47:55;4.93;;;1.53;;
21168;SDS011;10742;51.816;8.662;2024-02-26T03:51:17;2.80;;;1.33;;
21168;SDS011;10742;51.816;8.662;2024-02-26T03:54:38;1.40;;;1.27;;
21168;SDS011;10742;51.816;8.662;2024-02-26T03:58:00;1.93;;;1.50;;
21168;SDS011;10742;51.816;8.662;2024-02-26T04:01:21;3.07;;;1.70;;
21168;SDS011;10742;51.816;8.662;2024-02-26T04:04:43;3.53;;;1.93;;
21168;SDS011;10742;51.816;8.662;2024-02-26T04:08:04;3.67;;;1.40;;
21168;SDS011;10742;51.816;8.662;2024-02-26T04:11:27;1.63;;;1.40;;
21168;SDS011;10742;51.816;8.662;2024-02-26T04:14:49;2.30;;;1.40;;
21168;SDS011;10742;51.816;8.662;2024-02-26T04:18:10;1.57;;;1.23;;
21168;SDS011;10742;51.816;8.662;2024-02-26T04:21:32;2.67;;;0.97;;
21168;SDS011;10742;51.816;8.662;2024-02-26T04:24:53;1.63;;;1.13;;
21168;SDS011;10742;51.816;8.662;2024-02-26T04:28:14;1.87;;;1.20;;
21168;SDS011;10742;51.816;8.662;2024-02-26T04:31:37;2.03;;;1.20;;
21168;SDS011;10742;51.816;8.662;2024-02-26T04:34:58;2.40;;;1.20;;
21168;SDS011;10742;51.816;8.662;2024-02-26T04:38:19;5.23;;;1.20;;
21168;SDS011;10742;51.816;8.662;2024-02-26T04:41:41;2.37;;;1.20;;
21168;SDS011;10742;51.816;8.662;2024-02-26T04:45:03;1.73;;;1.00;;
21168;SDS011;10742;51.816;8.662;2024-02-26T04:48:24;2.23;;;1.20;;
21168;SDS011;10742;51.816;8.662;2024-02-26T04:51:45;1.87;;;1.20;;
21168;SDS011;10742;51.816;8.662;2024-02-26T04:55:08;2.40;;;1.40;;
21168;SDS011;10742;51.816;8.662;2024-02-26T04:58:30;3.13;;;1.67;;
21168;SDS011;10742;51.816;8.662;2024-02-26T05:01:51;2.10;;;1.60;;
21168;SDS011;10742;51.816;8.662;2024-02-26T05:05:13;2.13;;;1.67;;
21168;SDS011;10742;51.816;8.662;2024-02-26T05:08:35;2.40;;;1.60;;
21168;SDS011;10742;51.816;8.662;2024-02-26T05:11:59;2.73;;;1.47;;
21168;SDS011;10742;51.816;8.662;2024-02-26T05:15:20;2.67;;;1.70;;
21168;SDS011;10742;51.816;8.662;2024-02-26T05:18:42;3.63;;;1.53;;
21168;SDS011;10742;51.816;8.662;2024-02-26T05:22:03;3.87;;;1.60;;
21168;SDS011;10742;51.816;8.662;2024-02-26T05:25:25;2.63;;;1.70;;
21168;SDS011;10742;51.816;8.662;2024-02-26T05:28:46;2.93;;;1.80;;
21168;SDS011;10742;51.816;8.662;2024-02-26T05:32:07;1.67;;;1.57;;
21168;SDS011;10742;51.816;8.662;2024-02-26T05:35:28;4.10;;;2.07;;
21168;SDS011;10742;51.816;8.662;2024-02-26T05:38:49;4.27;;;1.87;;
21168;SDS011;10742;51.816;8.662;2024-02-26T05:42:11;4.90;;;2.23;;
21168;SDS011;10742;51.816;8.662;2024-02-26T05:45:32;5.90;;;2.57;;
21168;SDS011;10742;51.816;8.662;2024-02-26T05:48:53;6.13;;;2.50;;
21168;SDS011;10742;51.816;8.662;2024-02-26T05:52:15;4.83;;;2.27;;
21168;SDS011;10742;51.816;8.662;2024-02-26T05:55:36;3.17;;;1.70;;
21168;SDS011;10742;51.816;8.662;2024-02-26T05:58:58;2.40;;;1.40;;
21168;SDS011;10742;51.816;8.662;2024-02-26T06:02:19;2.87;;;1.33;;
21168;SDS011;10742;51.816;8.662;2024-02-26T06:05:41;2.90;;;1.33;;
21168;SDS011;10742;51.816;8.662;2024-02-26T06:09:03;2.13;;;1.40;;
21168;SDS011;10742;51.816;8.662;2024-02-26T06:12:25;4.27;;;1.30;;
21168;SDS011;10742;51.816;8.662;2024-02-26T06:15:49;2.90;;;1.10;;
21168;SDS011;10742;51.816;8.662;2024-02-26T06:19:10;3.90;;;1.10;;
21168;SDS011;10742;51.816;8.662;2024-02-26T06:22:32;3.43;;;1.67;;
21168;SDS011;10742;51.816;8.662;2024-02-26T06:25:54;2.33;;;1.20;;
21168;SDS011;10742;51.816;8.662;2024-02-26T06:29:15;2.73;;;1.23;;
21168;SDS011;10742;51.816;8.662;2024-02-26T06:32:37;1.50;;;0.90;;
21168;SDS011;10742;51.816;8.662;2024-02-26T06:35:58;1.47;;;1.10;;
21168;SDS011;10742;51.816;8.662;2024-02-26T06:39:20;1.27;;;0.93;;
21168;SDS011;10742;51.816;8.662;2024-02-26T06:42:51;1.30;;;1.03;;
21168;SDS011;10742;51.816;8.662;2024-02-26T06:46:12;1.10;;;0.80;;
21168;SDS011;10742;51.816;8.662;2024-02-26T06:49:34;2.50;;;1.07;;
21168;SDS011;10742;51.816;8.662;2024-02-26T06:52:55;1.30;;;0.93;;
21168;SDS011;10742;51.816;8.662;2024-02-26T06:56:17;1.33;;;0.80;;
21168;SDS011;10742;51.816;8.662;2024-02-26T06:59:38;1.80;;;1.20;;
21168;SDS011;10742;51.816;8.662;2024-02-26T07:03:00;1.63;;;1.20;;
21168;SDS011;10742;51.816;8.662;2024-02-26T07:06:22;3.27;;;1.90;;
21168;SDS011;10742;51.816;8.662;2024-02-26T07:09:43;4.10;;;2.20;;
21168;SDS011;10742;51.816;8.662;2024-02-26T07:13:05;3.20;;;1.90;;
21168;SDS011;10742;51.816;8.662;2024-02-26T07:16:26;2.77;;;1.50;;
21168;SDS011;10742;51.816;8.662;2024-02-26T07:19:48;2.70;;;1.00;;
21168;SDS011;10742;51.816;8.662;2024-02-26T07:23:09;2.63;;;1.20;;
21168;SDS011;10742;51.816;8.662;2024-02-26T07:26:31;4.87;;;1.50;;
21168;SDS011;10742;51.816;8.662;2024-02-26T07:29:52;4.97;;;1.17;;
21168;SDS011;10742;51.816;8.662;2024-02-26T07:33:14;2.67;;;1.60;;
21168;SDS011;10742;51.816;8.662;2024-02-26T07:36:35;5.50;;;1.50;;
21168;SDS011;10742;51.816;8.662;2024-02-26T07:39:56;6.43;;;2.83;;
21168;SDS011;10742;51.816;8.662;2024-02-26T07:43:18;6.70;;;2.87;;
21168;SDS011;10742;51.816;8.662;2024-02-26T07:46:39;4.60;;;2.17;;
21168;SDS011;10742;51.816;8.662;2024-02-26T07:50:00;2.70;;;1.73;;
21168;SDS011;10742;51.816;8.662;2024-02-26T07:53:22;3.07;;;1.83;;
21168;SDS011;10742;51.816;8.662;2024-02-26T07:56:43;3.70;;;1.90;;
21168;SDS011;10742;51.816;8.662;2024-02-26T08:00:04;2.87;;;1.80;;
21168;SDS011;10742;51.816;8.662;2024-02-26T08:03:30;1.93;;;1.57;;
21168;SDS011;10742;51.816;8.662;2024-02-26T08:06:51;3.67;;;2.17;;
21168;SDS011;10742;51.816;8.662;2024-02-26T08:10:13;6.10;;;1.70;;
21168;SDS011;10742;51.816;8.662;2024-02-26T08:13:35;2.57;;;1.63;;
21168;SDS011;10742;51.816;8.662;2024-02-26T08:16:56;2.43;;;1.60;;
21168;SDS011;10742;51.816;8.662;2024-02-26T08:20:17;2.67;;;1.60;;
21168;SDS011;10742;51.816;8.662;2024-02-26T08:23:39;2.83;;;1.60;;
21168;SDS011;10742;51.816;8.662;2024-02-26T08:27:00;3.13;;;1.73;;
21168;SDS011;10742;51.816;8.662;2024-02-26T08:30:22;2.73;;;1.70;;
21168;SDS011;10742;51.816;8.662;2024-02-26T08:33:43;2.80;;;1.87;;
21168;SDS011;10742;51.816;8.662;2024-02-26T08:37:05;2.50;;;1.40;;
21168;SDS011;10742;51.816;8.662;2024-02-26T08:40:27;3.00;;;1.53;;
21168;SDS011;10742;51.816;8.662;2024-02-26T08:43:48;9.83;;;4.33;;
21168;SDS011;10742;51.816;8.662;2024-02-26T08:47:09;3.77;;;2.50;;
21168;SDS011;10742;51.816;8.662;2024-02-26T08:50:31;3.60;;;2.03;;
21168;SDS011;10742;51.816;8.662;2024-02-26T08:53:52;2.43;;;1.70;;
21168;SDS011;10742;51.816;8.662;2024-02-26T08:57:14;2.60;;;1.57;;
21168;SDS011;10742;51.816;8.662;2024-02-26T09:00:36;2.80;;;1.90;;
21168;SDS011;10742;51.816;8.662;2024-02-26T09:03:57;4.27;;;1.70;;
21168;SDS011;10742;51.816;8.662;2024-02-26T09:07:19;3.80;;;1.80;;
21168;SDS011;10742;51.816;8.662;2024-02-26T09:10:40;3.07;;;1.50;;
21168;SDS011;10742;51.816;8.662;2024-02-26T09:14:02;2.40;;;1.50;;
21168;SDS011;10742;51.816;8.662;2024-02-26T09:17:24;3.20;;;1.77;;
21168;SDS011;10742;51.816;8.662;2024-02-26T09:20:45;2.50;;;1.63;;
21168;SDS011;10742;51.816;8.662;2024-02-26T09:24:06;1.90;;;1.60;;
21168;SDS011;10742;51.816;8.662;2024-02-26T09:27:28;2.30;;;1.50;;
21168;SDS011;10742;51.816;8.662;2024-02-26T09:30:51;2.43;;;1.40;;
21168;SDS011;10742;51.816;8.662;2024-02-26T09:34:13;1.90;;;1.40;;
21168;SDS011;10742;51.816;8.662;2024-02-26T09:37:34;3.03;;;1.90;;
21168;SDS011;10742;51.816;8.662;2024-02-26T09:40:57;3.53;;;1.37;;
21168;SDS011;10742;51.816;8.662;2024-02-26T09:44:19;2.90;;;1.60;;
21168;SDS011;10742;51.816;8.662;2024-02-26T09:47:41;2.80;;;1.67;;
21168;SDS011;10742;51.816;8.662;2024-02-26T09:51:03;4.17;;;1.67;;
21168;SDS011;10742;51.816;8.662;2024-02-26T09:54:25;3.33;;;1.80;;
21168;SDS011;10742;51.816;8.662;2024-02-26T09:57:49;4.37;;;1.80;;
21168;SDS011;10742;51.816;8.662;2024-02-26T10:01:13;3.17;;;2.20;;
21168;SDS011;10742;51.816;8.662;2024-02-26T10:04:42;6.23;;;2.20;;
21168;SDS011;10742;51.816;8.662;2024-02-26T10:08:05;3.93;;;2.20;;
21168;SDS011;10742;51.816;8.662;2024-02-26T10:11:29;3.77;;;2.20;;
21168;SDS011;10742;51.816;8.662;2024-02-26T10:14:51;4.43;;;1.83;;
21168;SDS011;10742;51.816;8.662;2024-02-26T10:18:13;4.03;;;2.07;;
21168;SDS011;10742;51.816;8.662;2024-02-26T10:21:34;5.57;;;2.37;;
21168;SDS011;10742;51.816;8.662;2024-02-26T10:24:57;3.23;;;2.20;;
21168;SDS011;10742;51.816;8.662;2024-02-26T10:28:18;3.40;;;2.13;;
21168;SDS011;10742;51.816;8.662;2024-02-26T10:31:42;9.10;;;3.60;;
21168;SDS011;10742;51.816;8.662;2024-02-26T10:35:05;11.27;;;3.93;;
21168;SDS011;10742;51.816;8.662;2024-02-26T10:38:29;5.77;;;2.73;;
21168;SDS011;10742;51.816;8.662;2024-02-26T10:41:51;4.73;;;2.53;;
21168;SDS011;10742;51.816;8.662;2024-02-26T10:45:13;6.47;;;2.77;;
21168;SDS011;10742;51.816;8.662;2024-02-26T10:48:35;7.73;;;2.80;;
21168;SDS011;10742;51.816;8.662;2024-02-26T10:51:56;5.73;;;2.73;;
21168;SDS011;10742;51.816;8.662;2024-02-26T10:55:18;4.13;;;2.77;;
21168;SDS011;10742;51.816;8.662;2024-02-26T10:58:43;6.37;;;2.80;;
21168;SDS011;10742;51.816;8.662;2024-02-26T11:02:07;7.33;;;2.80;;
21168;SDS011;10742;51.816;8.662;2024-02-26T11:05:30;5.70;;;2.97;;
21168;SDS011;10742;51.816;8.662;2024-02-26T11:08:54;5.63;;;2.77;;
21168;SDS011;10742;51.816;8.662;2024-02-26T11:12:16;7.73;;;3.67;;
21168;SDS011;10742;51.816;8.662;2024-02-26T11:15:38;7.47;;;3.07;;
21168;SDS011;10742;51.816;8.662;2024-02-26T11:19:00;5.33;;;3.20;;
21168;SDS011;10742;51.816;8.662;2024-02-26T11:22:23;7.77;;;3.00;;
21168;SDS011;10742;51.816;8.662;2024-02-26T11:25:50;6.67;;;3.20;;
21168;SDS011;10742;51.816;8.662;2024-02-26T11:29:16;10.03;;;3.47;;
21168;SDS011;10742;51.816;8.662;2024-02-26T11:32:48;6.23;;;3.37;;
21168;SDS011;10742;51.816;8.662;2024-02-26T11:36:11;7.47;;;3.30;;
21168;SDS011;10742;51.816;8.662;2024-02-26T11:39:33;9.13;;;3.77;;
21168;SDS011;10742;51.816;8.662;2024-02-26T11:42:56;8.43;;;4.20;;
21168;SDS011;10742;51.816;8.662;2024-02-26T11:49:50;9.73;;;3.97;;
21168;SDS011;10742;51.816;8.662;2024-02-26T11:53:29;9.07;;;3.97;;
21168;SDS011;10742;51.816;8.662;2024-02-26T11:56:51;8.97;;;4.20;;
21168;SDS011;10742;51.816;8.662;2024-02-26T12:00:13;9.33;;;4.33;;
21168;SDS011;10742;51.816;8.662;2024-02-26T12:03:37;10.67;;;4.40;;
21168;SDS011;10742;51.816;8.662;2024-02-26T12:07:00;9.13;;;4.30;;
21168;SDS011;10742;51.816;8.662;2024-02-26T12:10:26;9.27;;;4.50;;
21168;SDS011;10742;51.816;8.662;2024-02-26T12:13:54;11.53;;;4.70;;
21168;SDS011;10742;51.816;8.662;2024-02-26T12:17:21;8.83;;;4.57;;
21168;SDS011;10742;51.816;8.662;2024-02-26T12:20:44;9.83;;;4.47;;
21168;SDS011;10742;51.816;8.662;2024-02-26T12:24:12;10.60;;;4.70;;
21168;SDS011;10742;51.816;8.662;2024-02-26T12:27:35;15.97;;;4.97;;
21168;SDS011;10742;51.816;8.662;2024-02-26T12:30:56;11.03;;;4.77;;
21168;SDS011;10742;51.816;8.662;2024-02-26T12:34:20;11.40;;;4.53;;
21168;SDS011;10742;51.816;8.662;2024-02-26T12:37:41;12.63;;;4.97;;
21168;SDS011;10742;51.816;8.662;2024-02-26T12:41:04;15.80;;;5.13;;
21168;SDS011;10742;51.816;8.662;2024-02-26T12:44:27;12.10;;;5.07;;
21168;SDS011;10742;51.816;8.662;2024-02-26T12:47:48;11.60;;;4.97;;
21168;SDS011;10742;51.816;8.662;2024-02-26T12:51:11;10.23;;;4.70;;
21168;SDS011;10742;51.816;8.662;2024-02-26T12:54:35;14.90;;;4.90;;
21168;SDS011;10742;51.816;8.662;2024-02-26T12:57:59;10.30;;;4.67;;
21168;SDS011;10742;51.816;8.662;2024-02-26T13:01:21;9.50;;;4.27;;
21168;SDS011;10742;51.816;8.662;2024-02-26T13:04:44;11.23;;;4.80;;
21168;SDS011;10742;51.816;8.662;2024-02-26T13:08:06;9.77;;;4.20;;
21168;SDS011;10742;51.816;8.662;2024-02-26T13:11:28;9.80;;;4.50;;
21168;SDS011;10742;51.816;8.662;2024-02-26T13:15:01;13.03;;;5.10;;
21168;SDS011;10742;51.816;8.662;2024-02-26T13:18:27;15.10;;;5.07;;
21168;SDS011;10742;51.816;8.662;2024-02-26T13:21:49;10.97;;;4.57;;
21168;SDS011;10742;51.816;8.662;2024-02-26T13:25:10;10.13;;;4.10;;
21168;SDS011;10742;51.816;8.662;2024-02-26T13:28:32;10.20;;;4.23;;
21168;SDS011;10742;51.816;8.662;2024-02-26T13:31:54;8.27;;;4.00;;
21168;SDS011;10742;51.816;8.662;2024-02-26T13:35:18;9.07;;;3.67;;
21168;SDS011;10742;51.816;8.662;2024-02-26T13:38:39;6.97;;;3.73;;
21168;SDS011;10742;51.816;8.662;2024-02-26T13:42:02;8.53;;;3.73;;
21168;SDS011;10742;51.816;8.662;2024-02-26T13:45:23;7.33;;;3.47;;
21168;SDS011;10742;51.816;8.662;2024-02-26T13:48:44;8.63;;;3.43;;
21168;SDS011;10742;51.816;8.662;2024-02-26T13:52:06;7.10;;;3.50;;
21168;SDS011;10742;51.816;8.662;2024-02-26T13:55:27;8.77;;;3.20;;
21168;SDS011;10742;51.816;8.662;2024-02-26T13:58:50;9.77;;;4.07;;
21168;SDS011;10742;51.816;8.662;2024-02-26T14:02:11;8.37;;;3.70;;
21168;SDS011;10742;51.816;8.662;2024-02-26T14:05:33;6.83;;;3.30;;
21168;SDS011;10742;51.816;8.662;2024-02-26T14:08:54;11.70;;;3.60;;
21168;SDS011;10742;51.816;8.662;2024-02-26T14:12:15;9.73;;;3.60;;
21168;SDS011;10742;51.816;8.662;2024-02-26T14:15:38;8.60;;;3.23;;
21168;SDS011;10742;51.816;8.662;2024-02-26T14:19:00;9.03;;;3.53;;
21168;SDS011;10742;51.816;8.662;2024-02-26T14:22:21;8.07;;;3.30;;
21168;SDS011;10742;51.816;8.662;2024-02-26T14:25:43;7.13;;;3.33;;
21168;SDS011;10742;51.816;8.662;2024-02-26T14:29:04;6.30;;;3.10;;
21168;SDS011;10742;51.816;8.662;2024-02-26T14:32:25;7.40;;;3.43;;
21168;SDS011;10742;51.816;8.662;2024-02-26T14:35:48;6.40;;;3.10;;
21168;SDS011;10742;51.816;8.662;2024-02-26T14:39:09;10.40;;;3.47;;
21168;SDS011;10742;51.816;8.662;2024-02-26T14:42:33;6.63;;;3.30;;
21168;SDS011;10742;51.816;8.662;2024-02-26T14:45:54;5.97;;;3.20;;
21168;SDS011;10742;51.816;8.662;2024-02-26T14:49:16;10.00;;;3.30;;
21168;SDS011;10742;51.816;8.662;2024-02-26T14:52:38;7.20;;;3.40;;
21168;SDS011;10742;51.816;8.662;2024-02-26T14:55:59;9.70;;;3.70;;
21168;SDS011;10742;51.816;8.662;2024-02-26T14:59:20;10.23;;;3.77;;
21168;SDS011;10742;51.816;8.662;2024-02-26T15:02:41;10.63;;;3.40;;
21168;SDS011;10742;51.816;8.662;2024-02-26T15:06:03;6.73;;;2.80;;
21168;SDS011;10742;51.816;8.662;2024-02-26T15:09:25;8.17;;;3.60;;
21168;SDS011;10742;51.816;8.662;2024-02-26T15:12:46;9.93;;;3.87;;
21168;SDS011;10742;51.816;8.662;2024-02-26T15:16:08;5.90;;;3.10;;
21168;SDS011;10742;51.816;8.662;2024-02-26T15:19:37;12.33;;;3.53;;
21168;SDS011;10742;51.816;8.662;2024-02-26T15:22:58;11.93;;;3.47;;
21168;SDS011;10742;51.816;8.662;2024-02-26T15:26:19;7.83;;;3.60;;
21168;SDS011;10742;51.816;8.662;2024-02-26T15:29:41;10.00;;;3.27;;
21168;SDS011;10742;51.816;8.662;2024-02-26T15:33:02;8.07;;;3.73;;
21168;SDS011;10742;51.816;8.662;2024-02-26T15:36:24;7.40;;;3.53;;
21168;SDS011;10742;51.816;8.662;2024-02-26T15:39:45;9.30;;;3.70;;
21168;SDS011;10742;51.816;8.662;2024-02-26T15:43:08;7.53;;;3.47;;
21168;SDS011;10742;51.816;8.662;2024-02-26T15:46:30;7.03;;;3.27;;
21168;SDS011;10742;51.816;8.662;2024-02-26T15:49:53;10.23;;;3.47;;
21168;SDS011;10742;51.816;8.662;2024-02-26T15:53:15;9.13;;;3.67;;
21168;SDS011;10742;51.816;8.662;2024-02-26T15:56:36;8.83;;;3.67;;
21168;SDS011;10742;51.816;8.662;2024-02-26T15:59:59;9.37;;;3.70;;
21168;SDS011;10742;51.816;8.662;2024-02-26T16:03:36;8.30;;;3.53;;
21168;SDS011;10742;51.816;8.662;2024-02-26T16:06:59;11.40;;;4.70;;
21168;SDS011;10742;51.816;8.662;2024-02-26T16:10:24;8.47;;;3.73;;
21168;SDS011;10742;51.816;8.662;2024-02-26T16:13:50;8.63;;;3.60;;
21168;SDS011;10742;51.816;8.662;2024-02-26T16:17:21;10.17;;;4.23;;
21168;SDS011;10742;51.816;8.662;2024-02-26T16:20:47;10.63;;;4.83;;
21168;SDS011;10742;51.816;8.662;2024-02-26T16:24:08;9.53;;;4.07;;
21168;SDS011;10742;51.816;8.662;2024-02-26T16:27:30;7.67;;;3.80;;
21168;SDS011;10742;51.816;8.662;2024-02-26T16:30:52;8.17;;;3.60;;
21168;SDS011;10742;51.816;8.662;2024-02-26T16:34:14;7.60;;;3.43;;
21168;SDS011;10742;51.816;8.662;2024-02-26T16:37:35;7.13;;;3.40;;
21168;SDS011;10742;51.816;8.662;2024-02-26T16:40:57;7.93;;;3.60;;
21168;SDS011;10742;51.816;8.662;2024-02-26T16:44:18;9.73;;;3.43;;
21168;SDS011;10742;51.816;8.662;2024-02-26T16:47:40;7.07;;;3.13;;
21168;SDS011;10742;51.816;8.662;2024-02-26T16:51:02;9.77;;;3.80;;
21168;SDS011;10742;51.816;8.662;2024-02-26T16:54:24;9.23;;;3.53;;
21168;SDS011;10742;51.816;8.662;2024-02-26T16:57:45;6.23;;;3.23;;
21168;SDS011;10742;51.816;8.662;2024-02-26T17:01:06;7.80;;;3.40;;
21168;SDS011;10742;51.816;8.662;2024-02-26T17:04:27;5.23;;;3.03;;
21168;SDS011;10742;51.816;8.662;2024-02-26T17:07:49;6.07;;;3.23;;
21168;SDS011;10742;51.816;8.662;2024-02-26T17:11:11;8.97;;;3.83;;
21168;SDS011;10742;51.816;8.662;2024-02-26T17:14:32;7.47;;;3.30;;
21168;SDS011;10742;51.816;8.662;2024-02-26T17:17:53;7.30;;;3.30;;
21168;SDS011;10742;51.816;8.662;2024-02-26T17:21:18;7.10;;;3.70;;
21168;SDS011;10742;51.816;8.662;2024-02-26T17:24:40;8.60;;;3.37;;
21168;SDS011;10742;51.816;8.662;2024-02-26T17:28:02;6.13;;;3.43;;
21168;SDS011;10742;51.816;8.662;2024-02-26T17:31:23;7.23;;;3.43;;
21168;SDS011;10742;51.816;8.662;2024-02-26T17:34:45;7.77;;;3.30;;
21168;SDS011;10742;51.816;8.662;2024-02-26T17:38:09;8.30;;;3.13;;
21168;SDS011;10742;51.816;8.662;2024-02-26T17:41:31;7.87;;;3.13;;
21168;SDS011;10742;51.816;8.662;2024-02-26T17:44:52;7.20;;;3.20;;
21168;SDS011;10742;51.816;8.662;2024-02-26T17:48:13;7.83;;;3.23;;
21168;SDS011;10742;51.816;8.662;2024-02-26T17:51:35;7.53;;;3.07;;
21168;SDS011;10742;51.816;8.662;2024-02-26T17:54:56;12.03;;;4.77;;
21168;SDS011;10742;51.816;8.662;2024-02-26T17:58:18;7.43;;;3.53;;
21168;SDS011;10742;51.816;8.662;2024-02-26T18:01:40;6.47;;;3.10;;
21168;SDS011;10742;51.816;8.662;2024-02-26T18:05:01;6.83;;;3.20;;
21168;SDS011;10742;51.816;8.662;2024-02-26T18:08:23;7.97;;;3.53;;
21168;SDS011;10742;51.816;8.662;2024-02-26T18:11:45;7.80;;;3.50;;
21168;SDS011;10742;51.816;8.662;2024-02-26T18:15:07;6.97;;;3.47;;
21168;SDS011;10742;51.816;8.662;2024-02-26T18:18:28;6.93;;;3.23;;
21168;SDS011;10742;51.816;8.662;2024-02-26T18:21:51;6.50;;;3.37;;
21168;SDS011;10742;51.816;8.662;2024-02-26T18:25:12;7.03;;;3.43;;
21168;SDS011;10742;51.816;8.662;2024-02-26T18:28:33;8.43;;;3.37;;
21168;SDS011;10742;51.816;8.662;2024-02-26T18:31:55;10.73;;;3.80;;
21168;SDS011;10742;51.816;8.662;2024-02-26T18:35:16;11.67;;;4.37;;
21168;SDS011;10742;51.816;8.662;2024-02-26T18:38:39;8.77;;;3.53;;
21168;SDS011;10742;51.816;8.662;2024-02-26T18:42:00;6.43;;;3.47;;
21168;SDS011;10742;51.816;8.662;2024-02-26T18:45:22;10.97;;;3.87;;
21168;SDS011;10742;51.816;8.662;2024-02-26T18:48:43;8.73;;;3.37;;
21168;SDS011;10742;51.816;8.662;2024-02-26T18:52:05;8.27;;;3.57;;
21168;SDS011;10742;51.816;8.662;2024-02-26T18:55:26;7.93;;;3.50;;
21168;SDS011;10742;51.816;8.662;2024-02-26T18:58:48;8.87;;;3.67;;
21168;SDS011;10742;51.816;8.662;2024-02-26T19:02:09;8.40;;;3.47;;
21168;SDS011;10742;51.816;8.662;2024-02-26T19:05:31;7.93;;;3.70;;
21168;SDS011;10742;51.816;8.662;2024-02-26T19:08:52;8.70;;;3.33;;
21168;SDS011;10742;51.816;8.662;2024-02-26T19:12:13;5.77;;;3.27;;
21168;SDS011;10742;51.816;8.662;2024-02-26T19:15:35;6.37;;;3.40;;
21168;SDS011;10742;51.816;8.662;2024-02-26T19:18:56;8.47;;;3.80;;
21168;SDS011;10742;51.816;8.662;2024-02-26T19:22:18;6.63;;;3.57;;
21168;SDS011;10742;51.816;8.662;2024-02-26T19:25:39;9.30;;;3.57;;
21168;SDS011;10742;51.816;8.662;2024-02-26T19:29:00;8.40;;;3.33;;
21168;SDS011;10742;51.816;8.662;2024-02-26T19:32:24;7.97;;;3.20;;
21168;SDS011;10742;51.816;8.662;2024-02-26T19:35:45;4.17;;;2.83;;
21168;SDS011;10742;51.816;8.662;2024-02-26T19:39:09;5.40;;;3.03;;
21168;SDS011;10742;51.816;8.662;2024-02-26T19:42:30;6.00;;;3.10;;
21168;SDS011;10742;51.816;8.662;2024-02-26T19:45:51;9.07;;;3.07;;
21168;SDS011;10742;51.816;8.662;2024-02-26T19:49:14;5.70;;;2.87;;
21168;SDS011;10742;51.816;8.662;2024-02-26T19:52:36;6.20;;;2.67;;
21168;SDS011;10742;51.816;8.662;2024-02-26T19:55:58;4.93;;;2.90;;
21168;SDS011;10742;51.816;8.662;2024-02-26T19:59:22;4.47;;;2.50;;
21168;SDS011;10742;51.816;8.662;2024-02-26T20:02:44;6.63;;;2.73;;
21168;SDS011;10742;51.816;8.662;2024-02-26T20:06:05;4.67;;;2.60;;
21168;SDS011;10742;51.816;8.662;2024-02-26T20:09:27;6.40;;;2.77;;
21168;SDS011;10742;51.816;8.662;2024-02-26T20:12:50;5.37;;;2.67;;
21168;SDS011;10742;51.816;8.662;2024-02-26T20:16:13;5.87;;;2.40;;
21168;SDS011;10742;51.816;8.662;2024-02-26T20:19:34;4.30;;;2.43;;